createdAt,value
2016-06-25T00:00:38.654Z,71.91
2016-06-25T00:01:38.654Z,72
2016-06-25T00:02:38.621Z,71.91
2016-06-25T00:03:38.636Z,71.62
2016-06-25T00:04:38.600Z,71.84
2016-06-25T00:05:38.581Z,71.91
2016-06-25T00:06:38.570Z,72.04
2016-06-25T00:07:38.554Z,72.04
2016-06-25T00:08:38.529Z,71.84
2016-06-25T00:09:38.530Z,71.94
2016-06-25T00:10:38.562Z,71.94
2016-06-25T00:11:38.507Z,71.94
2016-06-25T00:12:38.486Z,71.84
2016-06-25T00:13:38.487Z,72.04
2016-06-25T00:14:38.464Z,71.46
2016-06-25T00:15:38.451Z,71.66
2016-06-25T00:16:38.429Z,71.56
2016-06-25T00:17:38.422Z,71.36
2016-06-25T00:18:37.807Z,71.66
2016-06-25T00:19:38.392Z,71.17
2016-06-25T00:20:38.379Z,71.36
2016-06-25T00:21:38.366Z,70.98
2016-06-25T00:22:38.348Z,71.36
2016-06-25T00:23:38.340Z,71.17
2016-06-25T00:24:38.323Z,70.98
2016-06-25T00:25:38.310Z,71.56
2016-06-25T00:26:38.593Z,71.46
2016-06-25T00:27:38.272Z,71.36
2016-06-25T00:28:38.262Z,71.36
2016-06-25T00:29:38.263Z,71.26
2016-06-25T00:30:38.241Z,71.36
2016-06-25T00:31:38.219Z,71.66
2016-06-25T00:32:38.205Z,71.26
2016-06-25T00:33:38.200Z,71.36
2016-06-25T00:34:38.577Z,71.46
2016-06-25T00:35:38.164Z,71.08
2016-06-25T00:36:38.156Z,71.08
2016-06-25T00:37:38.138Z,71.46
2016-06-25T00:38:38.126Z,70.98
2016-06-25T00:39:38.114Z,70.88
2016-06-25T00:40:38.107Z,70.78
2016-06-25T00:41:38.332Z,70.78
2016-06-25T00:42:38.067Z,70.78
2016-06-25T00:43:38.063Z,71.17
2016-06-25T00:44:38.054Z,70.78
2016-06-25T00:45:38.069Z,70.68
2016-06-25T00:46:38.024Z,70.5
2016-06-25T00:47:38.004Z,71.46
2016-06-25T00:48:37.381Z,71.26
2016-06-25T00:49:38.431Z,71.56
2016-06-25T00:50:37.964Z,71.26
2016-06-25T00:51:37.942Z,70.98
2016-06-25T00:52:37.939Z,71.46
2016-06-25T00:53:37.922Z,71.46
2016-06-25T00:54:37.910Z,70.88
2016-06-25T00:55:37.893Z,71.66
2016-06-25T00:56:37.878Z,71.46
2016-06-25T00:57:38.423Z,71.46
2016-06-25T00:58:37.846Z,71.26
2016-06-25T00:59:37.853Z,71.36
2016-06-25T01:00:37.822Z,70.84
2016-06-25T01:01:37.812Z,71.33
2016-06-25T01:02:37.793Z,71.14
2016-06-25T01:03:37.784Z,71.33
2016-06-25T01:04:37.773Z,71.23
2016-06-25T01:05:38.363Z,71.33
2016-06-25T01:06:37.750Z,71.04
2016-06-25T01:07:37.735Z,71.26
2016-06-25T01:08:37.722Z,71.36
2016-06-25T01:09:37.706Z,71.17
2016-06-25T01:10:37.685Z,71.23
2016-06-25T01:11:37.677Z,71.33
2016-06-25T01:12:37.663Z,71.04
2016-06-25T01:13:38.343Z,71.36
2016-06-25T01:14:37.626Z,71.26
2016-06-25T01:15:37.620Z,71.56
2016-06-25T01:16:37.594Z,71.42
2016-06-25T01:17:37.587Z,71.23
2016-06-25T01:18:37.602Z,71.17
2016-06-25T01:19:37.562Z,71.14
2016-06-25T01:20:37.546Z,71.14
2016-06-25T01:21:38.487Z,71.42
2016-06-25T01:22:37.530Z,71.56
2016-06-25T01:23:37.508Z,71.14
2016-06-25T01:24:37.719Z,71.33
2016-06-25T01:25:37.477Z,71.33
2016-06-25T01:26:37.470Z,71.04
2016-06-25T01:27:37.450Z,71.33
2016-06-25T01:28:37.436Z,71.23
2016-06-25T01:29:37.622Z,71.42
2016-06-25T01:30:37.406Z,71.42
2016-06-25T01:31:37.395Z,71.33
2016-06-25T01:32:37.381Z,71.42
2016-06-25T01:33:37.366Z,71.33
2016-06-25T01:34:37.357Z,71.62
2016-06-25T01:35:37.348Z,71.42
2016-06-25T01:36:37.329Z,71.14
2016-06-25T01:37:37.676Z,71.42
2016-06-25T01:38:37.323Z,71.04
2016-06-25T01:39:37.296Z,71.14
2016-06-25T01:40:37.278Z,71.14
2016-06-25T01:41:37.248Z,70.94
2016-06-25T01:42:37.244Z,70.75
2016-06-25T01:43:37.230Z,71.42
2016-06-25T01:44:37.207Z,71.42
2016-06-25T01:45:38.405Z,70.94
2016-06-25T01:46:37.181Z,71.33
2016-06-25T01:47:37.172Z,71.42
2016-06-25T01:48:37.151Z,71.81
2016-06-25T01:49:37.169Z,71.52
2016-06-25T01:50:37.139Z,71.62
2016-06-25T01:51:37.120Z,71.81
2016-06-25T01:52:36.496Z,71.81
2016-06-25T01:53:37.102Z,71.72
2016-06-25T01:54:37.070Z,70.84
2016-06-25T01:55:37.064Z,71.52
2016-06-25T01:56:37.042Z,71.42
2016-06-25T01:57:37.046Z,70.94
2016-06-25T01:58:37.021Z,70.84
2016-06-25T01:59:37.026Z,70.94
2016-06-25T02:00:36.992Z,71.52
2016-06-25T02:01:36.976Z,70.94
2016-06-25T02:02:36.964Z,71.14
2016-06-25T02:03:36.954Z,71.23
2016-06-25T02:04:36.934Z,71.52
2016-06-25T02:05:36.922Z,71.62
2016-06-25T02:06:36.920Z,71.23
2016-06-25T02:07:36.902Z,70.84
2016-06-25T02:08:36.883Z,70.94
2016-06-25T02:09:36.874Z,70.94
2016-06-25T02:10:36.854Z,71.52
2016-06-25T02:11:36.838Z,71.14
2016-06-25T02:12:36.819Z,71.33
2016-06-25T02:13:36.214Z,71.23
2016-06-25T02:14:36.795Z,71.23
2016-06-25T02:15:36.789Z,70.94
2016-06-25T02:16:36.767Z,71.14
2016-06-25T02:17:36.754Z,70.94
2016-06-25T02:18:36.741Z,71.33
2016-06-25T02:19:36.732Z,71.14
2016-06-25T02:20:36.712Z,71.14
2016-06-25T02:21:36.700Z,71.42
2016-06-25T02:22:36.690Z,71.52
2016-06-25T02:23:36.665Z,71.81
2016-06-25T02:24:36.663Z,71.42
2016-06-25T02:25:36.656Z,71.33
2016-06-25T02:26:36.629Z,71.62
2016-06-25T02:27:36.614Z,71.62
2016-06-25T02:28:36.614Z,71.81
2016-06-25T02:29:36.598Z,71.81
2016-06-25T02:30:36.577Z,71.52
2016-06-25T02:31:36.565Z,71.62
2016-06-25T02:32:36.546Z,71.52
2016-06-25T02:33:36.530Z,70.84
2016-06-25T02:34:36.536Z,71.33
2016-06-25T02:35:36.510Z,71.72
2016-06-25T02:36:36.496Z,71.33
2016-06-25T02:37:36.474Z,71.52
2016-06-25T02:38:36.466Z,71.62
2016-06-25T02:39:36.465Z,71.72
2016-06-25T02:40:36.445Z,71.81
2016-06-25T02:41:36.432Z,71.81
2016-06-25T02:42:36.415Z,71.42
2016-06-25T02:43:36.391Z,71.91
2016-06-25T02:44:36.392Z,71.72
2016-06-25T02:45:36.361Z,71.81
2016-06-25T02:46:36.351Z,71.72
2016-06-25T02:47:36.345Z,71.91
2016-06-25T02:48:35.727Z,71.81
2016-06-25T02:49:36.306Z,71.62
2016-06-25T02:50:36.297Z,71.91
2016-06-25T02:51:36.282Z,71.72
2016-06-25T02:52:36.274Z,72
2016-06-25T02:53:36.254Z,71.62
2016-06-25T02:54:36.245Z,71.62
2016-06-25T02:55:36.235Z,71.91
2016-06-25T02:56:36.227Z,71.62
2016-06-25T02:57:36.206Z,71.91
2016-06-25T02:58:36.190Z,71.81
2016-06-25T02:59:36.177Z,71.91
2016-06-25T03:00:36.163Z,71.91
2016-06-25T03:01:36.145Z,71.81
2016-06-25T03:02:36.136Z,71.91
2016-06-25T03:03:36.115Z,71.91
2016-06-25T03:04:36.101Z,71.81
2016-06-25T03:05:36.083Z,71.72
2016-06-25T03:06:36.083Z,70.84
2016-06-25T03:07:36.071Z,71.62
2016-06-25T03:08:36.050Z,71.72
2016-06-25T03:09:36.024Z,71.72
2016-06-25T03:10:36.019Z,72
2016-06-25T03:11:35.999Z,71.72
2016-06-25T03:12:35.991Z,71.91
2016-06-25T03:13:35.973Z,71.72
2016-06-25T03:14:35.961Z,71.91
2016-06-25T03:15:36.128Z,71.62
2016-06-25T03:16:35.941Z,71.72
2016-06-25T03:17:36.018Z,71.62
2016-06-25T03:18:35.971Z,71.42
2016-06-25T03:19:35.892Z,71.52
2016-06-25T03:20:35.985Z,71.42
2016-06-25T03:21:35.913Z,71.52
2016-06-25T03:22:36.003Z,71.62
2016-06-25T03:23:35.843Z,71.91
2016-06-25T03:24:35.824Z,71.62
2016-06-25T03:25:35.818Z,71.42
2016-06-25T03:26:35.790Z,71.81
2016-06-25T03:27:35.783Z,71.62
2016-06-25T03:28:35.779Z,71.72
2016-06-25T03:29:35.758Z,71.52
2016-06-25T03:30:35.775Z,71.52
2016-06-25T03:31:35.732Z,71.42
2016-06-25T03:32:35.722Z,71.81
2016-06-25T03:33:35.709Z,71.42
2016-06-25T03:34:35.690Z,71.72
2016-06-25T03:35:35.675Z,71.42
2016-06-25T03:36:35.657Z,71.52
2016-06-25T03:37:35.748Z,71.52
2016-06-25T03:38:35.634Z,71.81
2016-06-25T03:39:35.613Z,71.81
2016-06-25T03:40:35.605Z,71.81
2016-06-25T03:41:35.588Z,71.91
2016-06-25T03:42:35.573Z,71.81
2016-06-25T03:43:35.559Z,71.81
2016-06-25T03:44:35.546Z,72.2
2016-06-25T03:45:35.739Z,72.1
2016-06-25T03:46:35.519Z,72.39
2016-06-25T03:47:35.505Z,72.2
2016-06-25T03:48:35.486Z,72.1
2016-06-25T03:49:35.475Z,72
2016-06-25T03:50:35.481Z,72.2
2016-06-25T03:51:35.447Z,72.2
2016-06-25T03:52:35.430Z,72.58
2016-06-25T03:53:35.770Z,72.39
2016-06-25T03:54:35.403Z,72.1
2016-06-25T03:55:35.437Z,72.3
2016-06-25T03:56:35.387Z,72
2016-06-25T03:57:35.361Z,72.2
2016-06-25T03:58:35.365Z,72
2016-06-25T03:59:35.351Z,72.3
2016-06-25T04:00:35.317Z,72.39
2016-06-25T04:01:35.774Z,72.3
2016-06-25T04:02:35.291Z,72.2
2016-06-25T04:03:35.286Z,72.3
2016-06-25T04:04:35.271Z,72.39
2016-06-25T04:05:34.683Z,72.3
2016-06-25T04:06:35.242Z,72.3
2016-06-25T04:07:35.225Z,72.3
2016-06-25T04:08:35.218Z,72.1
2016-06-25T04:09:35.194Z,72.1
2016-06-25T04:10:35.194Z,72.3
2016-06-25T04:11:35.170Z,72.39
2016-06-25T04:12:35.156Z,72.1
2016-06-25T04:13:35.144Z,72.2
2016-06-25T04:14:35.144Z,72.1
2016-06-25T04:15:35.111Z,72.39
2016-06-25T04:16:35.108Z,72.3
2016-06-25T04:17:35.091Z,72.2
2016-06-25T04:18:35.065Z,72.3
2016-06-25T04:19:35.052Z,72.39
2016-06-25T04:20:35.049Z,72.49
2016-06-25T04:21:35.032Z,72.39
2016-06-25T04:22:35.015Z,71.81
2016-06-25T04:23:35.002Z,72.2
2016-06-25T04:24:34.420Z,72.2
2016-06-25T04:25:34.977Z,72.24
2016-06-25T04:26:34.962Z,72.24
2016-06-25T04:27:34.954Z,72.3
2016-06-25T04:28:34.941Z,72.2
2016-06-25T04:29:34.936Z,72.3
2016-06-25T04:30:34.913Z,71.94
2016-06-25T04:31:34.892Z,72.39
2016-06-25T04:32:34.876Z,72.24
2016-06-25T04:33:34.866Z,72.2
2016-06-25T04:34:34.852Z,72.3
2016-06-25T04:35:34.229Z,71.81
2016-06-25T04:36:34.821Z,71.84
2016-06-25T04:37:34.803Z,71.91
2016-06-25T04:38:34.792Z,71.94
2016-06-25T04:39:34.782Z,71.62
2016-06-25T04:40:34.769Z,71.72
2016-06-25T04:41:34.751Z,71.42
2016-06-25T04:42:34.754Z,71.84
2016-06-25T04:43:34.721Z,71.91
2016-06-25T04:44:34.721Z,71.91
2016-06-25T04:45:34.694Z,71.42
2016-06-25T04:46:34.732Z,71.66
2016-06-25T04:47:34.676Z,71.91
2016-06-25T04:48:34.665Z,71.94
2016-06-25T04:49:34.641Z,71.66
2016-06-25T04:50:34.626Z,71.81
2016-06-25T04:51:34.618Z,71.72
2016-06-25T04:52:34.605Z,72.14
2016-06-25T04:53:34.595Z,71.81
2016-06-25T04:54:34.589Z,71.42
2016-06-25T04:55:34.563Z,71.84
2016-06-25T04:56:34.544Z,71.81
2016-06-25T04:57:34.530Z,71.62
2016-06-25T04:58:34.511Z,71.91
2016-06-25T04:59:34.518Z,71.84
2016-06-25T05:00:34.501Z,71.84
2016-06-25T05:01:34.482Z,71.81
2016-06-25T05:02:34.460Z,71.62
2016-06-25T05:03:34.444Z,71.84
2016-06-25T05:04:34.442Z,71.94
2016-06-25T05:05:34.417Z,71.81
2016-06-25T05:06:34.415Z,71.42
2016-06-25T05:07:34.391Z,71.91
2016-06-25T05:08:34.387Z,71.72
2016-06-25T05:09:33.768Z,71.91
2016-06-25T05:10:34.353Z,71.23
2016-06-25T05:11:34.336Z,71.42
2016-06-25T05:12:34.324Z,71.81
2016-06-25T05:13:34.316Z,71.91
2016-06-25T05:14:34.305Z,71.84
2016-06-25T05:15:34.286Z,71.81
2016-06-25T05:16:34.269Z,72
2016-06-25T05:17:34.254Z,71.62
2016-06-25T05:18:34.234Z,71.52
2016-06-25T05:19:34.231Z,71.14
2016-06-25T05:20:34.217Z,70.94
2016-06-25T05:21:34.214Z,71.04
2016-06-25T05:22:34.186Z,71.42
2016-06-25T05:23:34.177Z,71.33
2016-06-25T05:24:34.170Z,71.08
2016-06-25T05:25:34.149Z,71.23
2016-06-25T05:26:34.143Z,71.33
2016-06-25T05:27:34.118Z,71.33
2016-06-25T05:28:34.105Z,71.04
2016-06-25T05:29:34.088Z,71.33
2016-06-25T05:30:34.083Z,71.33
2016-06-25T05:31:34.068Z,71.04
2016-06-25T05:32:34.046Z,71.33
2016-06-25T05:33:34.038Z,71.42
2016-06-25T05:34:34.026Z,71.33
2016-06-25T05:35:34.011Z,71.33
2016-06-25T05:36:33.987Z,71.33
2016-06-25T05:37:33.983Z,71.04
2016-06-25T05:38:33.962Z,71.33
2016-06-25T05:39:33.953Z,71.33
2016-06-25T05:40:33.952Z,71.33
2016-06-25T05:41:33.941Z,70.94
2016-06-25T05:42:33.914Z,71.42
2016-06-25T05:43:33.893Z,71.42
2016-06-25T05:44:33.882Z,71.23
2016-06-25T05:45:33.280Z,71.04
2016-06-25T05:46:33.854Z,70.94
2016-06-25T05:47:33.842Z,71.23
2016-06-25T05:48:33.827Z,71.23
2016-06-25T05:49:33.818Z,70.94
2016-06-25T05:50:33.806Z,71.04
2016-06-25T05:51:33.803Z,71.23
2016-06-25T05:52:33.879Z,71.23
2016-06-25T05:53:33.762Z,71.33
2016-06-25T05:54:33.742Z,71.14
2016-06-25T05:55:33.730Z,71.42
2016-06-25T05:56:33.714Z,71.23
2016-06-25T05:57:33.752Z,71.42
2016-06-25T05:58:33.698Z,71.23
2016-06-25T05:59:33.679Z,71.04
2016-06-25T06:00:33.870Z,71.23
2016-06-25T06:01:33.648Z,71.04
2016-06-25T06:02:33.623Z,71.33
2016-06-25T06:03:33.617Z,71.23
2016-06-25T06:04:33.610Z,71.23
2016-06-25T06:05:33.597Z,71.42
2016-06-25T06:06:33.575Z,71.33
2016-06-25T06:07:32.969Z,71.14
2016-06-25T06:08:33.899Z,71.04
2016-06-25T06:09:33.575Z,71.04
2016-06-25T06:10:33.529Z,71.14
2016-06-25T06:11:33.506Z,71.33
2016-06-25T06:12:33.510Z,71.14
2016-06-25T06:13:33.495Z,71.04
2016-06-25T06:14:33.474Z,71.42
2016-06-25T06:15:33.462Z,71.04
2016-06-25T06:16:33.887Z,71.33
2016-06-25T06:17:32.826Z,70.84
2016-06-25T06:18:33.407Z,70.84
2016-06-25T06:19:33.391Z,71.23
2016-06-25T06:20:33.383Z,71.52
2016-06-25T06:21:33.372Z,71.42
2016-06-25T06:22:33.361Z,71.33
2016-06-25T06:23:33.342Z,71.56
2016-06-25T06:24:33.884Z,71.36
2016-06-25T06:25:33.314Z,71.23
2016-06-25T06:26:33.317Z,71.33
2016-06-25T06:27:33.287Z,71.17
2016-06-25T06:28:33.271Z,71.23
2016-06-25T06:29:33.265Z,71.23
2016-06-25T06:30:33.268Z,71.26
2016-06-25T06:31:33.230Z,71.46
2016-06-25T06:32:33.919Z,71.23
2016-06-25T06:33:33.205Z,71.56
2016-06-25T06:34:33.190Z,71.33
2016-06-25T06:35:33.177Z,71.26
2016-06-25T06:36:33.167Z,71.56
2016-06-25T06:37:33.151Z,71.62
2016-06-25T06:38:33.138Z,71.36
2016-06-25T06:39:33.132Z,71.08
2016-06-25T06:40:33.211Z,71.36
2016-06-25T06:41:33.090Z,71.17
2016-06-25T06:42:33.077Z,71.46
2016-06-25T06:43:33.066Z,71.36
2016-06-25T06:44:33.052Z,71.46
2016-06-25T06:45:33.041Z,71.26
2016-06-25T06:46:33.018Z,71.26
2016-06-25T06:47:33.019Z,71.46
2016-06-25T06:48:33.201Z,71.36
2016-06-25T06:49:32.993Z,71.14
2016-06-25T06:50:32.965Z,71.46
2016-06-25T06:51:32.959Z,71.62
2016-06-25T06:52:32.954Z,71.56
2016-06-25T06:53:32.920Z,71.81
2016-06-25T06:54:32.906Z,71.72
2016-06-25T06:55:32.898Z,71.91
2016-06-25T06:56:33.186Z,71.91
2016-06-25T06:57:32.865Z,71.81
2016-06-25T06:58:32.855Z,71.91
2016-06-25T06:59:32.838Z,71.91
2016-06-25T07:00:32.824Z,71.62
2016-06-25T07:01:32.812Z,71.91
2016-06-25T07:02:32.807Z,71.91
2016-06-25T07:03:32.843Z,71.62
2016-06-25T07:04:33.187Z,71.91
2016-06-25T07:05:32.767Z,71.91
2016-06-25T07:06:32.736Z,71.72
2016-06-25T07:07:32.738Z,71.72
2016-06-25T07:08:32.715Z,71.84
2016-06-25T07:09:32.711Z,71.72
2016-06-25T07:10:32.682Z,71.91
2016-06-25T07:11:32.670Z,71.84
2016-06-25T07:12:32.659Z,71.94
2016-06-25T07:13:32.663Z,71.66
2016-06-25T07:14:32.673Z,71.66
2016-06-25T07:15:32.620Z,71.72
2016-06-25T07:16:32.637Z,72.04
2016-06-25T07:17:32.589Z,71.91
2016-06-25T07:18:32.589Z,71.81
2016-06-25T07:19:32.723Z,71.66
2016-06-25T07:20:32.572Z,71.84
2016-06-25T07:21:32.548Z,71.91
2016-06-25T07:22:32.526Z,71.72
2016-06-25T07:23:32.531Z,72.1
2016-06-25T07:24:32.496Z,72.2
2016-06-25T07:25:32.514Z,72.39
2016-06-25T07:26:32.477Z,72.68
2016-06-25T07:27:32.719Z,72.78
2016-06-25T07:28:32.443Z,72.55
2016-06-25T07:29:32.434Z,72.64
2016-06-25T07:30:32.425Z,72.78
2016-06-25T07:31:32.394Z,72.68
2016-06-25T07:32:32.384Z,72.45
2016-06-25T07:33:32.374Z,72.94
2016-06-25T07:34:32.371Z,73.42
2016-06-25T07:35:32.707Z,73.42
2016-06-25T07:36:32.338Z,72.36
2016-06-25T07:37:32.334Z,72.45
2016-06-25T07:38:32.311Z,72.84
2016-06-25T07:39:32.294Z,72.55
2016-06-25T07:40:32.276Z,72.74
2016-06-25T07:41:32.267Z,72.36
2016-06-25T07:42:32.246Z,72.74
2016-06-25T07:43:32.754Z,72.64
2016-06-25T07:44:32.255Z,72.55
2016-06-25T07:45:31.607Z,72.45
2016-06-25T07:46:32.192Z,72.74
2016-06-25T07:47:32.212Z,72.45
2016-06-25T07:48:32.168Z,72.74
2016-06-25T07:49:32.147Z,72.74
2016-06-25T07:50:32.145Z,72.64
2016-06-25T07:51:32.722Z,72.45
2016-06-25T07:52:32.110Z,72.94
2016-06-25T07:53:32.090Z,72.45
2016-06-25T07:54:32.079Z,72.06
2016-06-25T07:55:32.080Z,72.39
2016-06-25T07:56:32.047Z,72.2
2016-06-25T07:57:32.047Z,72.3
2016-06-25T07:58:32.026Z,72.39
2016-06-25T07:59:32.014Z,72.39
2016-06-25T08:00:31.994Z,72.3
2016-06-25T08:01:31.986Z,72.3
2016-06-25T08:02:31.966Z,72.3
2016-06-25T08:03:31.950Z,72.39
2016-06-25T08:04:32.178Z,72.1
2016-06-25T08:05:31.923Z,72
2016-06-25T08:06:31.940Z,72.3
2016-06-25T08:07:32.002Z,72.2
2016-06-25T08:08:31.889Z,72.2
2016-06-25T08:09:31.869Z,72.1
2016-06-25T08:10:31.863Z,72.2
2016-06-25T08:11:31.845Z,72.2
2016-06-25T08:12:31.833Z,72
2016-06-25T08:13:31.818Z,72.2
2016-06-25T08:14:31.808Z,72.39
2016-06-25T08:15:32.039Z,72.39
2016-06-25T08:16:31.775Z,72.3
2016-06-25T08:17:31.761Z,72.2
2016-06-25T08:18:31.745Z,72.1
2016-06-25T08:19:31.750Z,72.3
2016-06-25T08:20:31.713Z,72.3
2016-06-25T08:21:31.712Z,72.3
2016-06-25T08:22:31.718Z,72.2
2016-06-25T08:23:32.042Z,71.52
2016-06-25T08:24:31.668Z,71.72
2016-06-25T08:25:31.667Z,71.72
2016-06-25T08:26:31.676Z,71.42
2016-06-25T08:27:31.617Z,71.72
2016-06-25T08:28:31.613Z,71.52
2016-06-25T08:29:30.992Z,71.81
2016-06-25T08:30:31.590Z,71.91
2016-06-25T08:31:32.014Z,71.91
2016-06-25T08:32:31.540Z,71.62
2016-06-25T08:33:31.544Z,70.94
2016-06-25T08:34:31.517Z,71.33
2016-06-25T08:35:31.531Z,71.26
2016-06-25T08:36:31.500Z,71.33
2016-06-25T08:37:31.486Z,71.08
2016-06-25T08:38:31.486Z,71.66
2016-06-25T08:39:31.450Z,71.26
2016-06-25T08:40:31.435Z,71.36
2016-06-25T08:41:30.824Z,71.23
2016-06-25T08:42:31.410Z,71.52
2016-06-25T08:43:31.402Z,71.33
2016-06-25T08:44:31.407Z,70.94
2016-06-25T08:45:31.383Z,71.23
2016-06-25T08:46:31.352Z,71.14
2016-06-25T08:47:30.740Z,71.42
2016-06-25T08:48:30.725Z,71.23
2016-06-25T08:49:31.325Z,71.04
2016-06-25T08:50:31.300Z,71.14
2016-06-25T08:51:30.687Z,71.33
2016-06-25T08:52:31.266Z,71.33
2016-06-25T08:53:31.255Z,71.52
2016-06-25T08:54:31.261Z,71.04
2016-06-25T08:55:31.227Z,71.14
2016-06-25T08:56:31.223Z,71.33
2016-06-25T08:57:31.208Z,70.94
2016-06-25T08:58:30.592Z,71.14
2016-06-25T08:59:31.180Z,71.42
2016-06-25T09:00:31.169Z,71.23
2016-06-25T09:01:31.147Z,71.52
2016-06-25T09:02:31.149Z,71.42
2016-06-25T09:03:31.126Z,70.94
2016-06-25T09:04:31.108Z,71.04
2016-06-25T09:05:31.086Z,71.14
2016-06-25T09:06:31.078Z,71.42
2016-06-25T09:07:31.056Z,71.42
2016-06-25T09:08:31.046Z,71.42
2016-06-25T09:09:31.043Z,71.04
2016-06-25T09:10:30.426Z,71.23
2016-06-25T09:11:31.003Z,71.04
2016-06-25T09:12:30.995Z,71.23
2016-06-25T09:13:30.980Z,71.23
2016-06-25T09:14:30.974Z,71.33
2016-06-25T09:15:30.952Z,71.23
2016-06-25T09:16:30.933Z,71.04
2016-06-25T09:17:30.923Z,71.04
2016-06-25T09:18:30.946Z,71.04
2016-06-25T09:19:30.894Z,71.04
2016-06-25T09:20:30.884Z,71.33
2016-06-25T09:21:30.872Z,71.04
2016-06-25T09:22:30.866Z,71.04
2016-06-25T09:23:30.873Z,71.04
2016-06-25T09:24:30.838Z,71.33
2016-06-25T09:25:30.811Z,71.42
2016-06-25T09:26:30.803Z,71.42
2016-06-25T09:27:30.786Z,71.23
2016-06-25T09:28:30.770Z,71.33
2016-06-25T09:29:30.766Z,71.52
2016-06-25T09:30:30.758Z,71.14
2016-06-25T09:31:30.742Z,71.04
2016-06-25T09:32:30.717Z,71.2
2016-06-25T09:33:30.704Z,71.1
2016-06-25T09:34:30.688Z,71.23
2016-06-25T09:35:30.687Z,71.1
2016-06-25T09:36:30.659Z,71.48
2016-06-25T09:37:30.645Z,71.78
2016-06-25T09:38:30.632Z,71.58
2016-06-25T09:39:30.626Z,71.78
2016-06-25T09:40:30.605Z,71.39
2016-06-25T09:41:30.594Z,70.9
2016-06-25T09:42:30.578Z,70.9
2016-06-25T09:43:30.559Z,71.78
2016-06-25T09:44:29.951Z,71.78
2016-06-25T09:45:30.535Z,71.39
2016-06-25T09:46:30.514Z,71.39
2016-06-25T09:47:30.514Z,71.78
2016-06-25T09:48:30.547Z,71.62
2016-06-25T09:49:30.489Z,71.33
2016-06-25T09:50:30.478Z,71.81
2016-06-25T09:51:30.463Z,71.62
2016-06-25T09:52:30.447Z,72.2
2016-06-25T09:53:30.423Z,72.64
2016-06-25T09:54:30.411Z,73.13
2016-06-25T09:55:30.401Z,73.52
2016-06-25T09:56:30.390Z,73.96
2016-06-25T09:57:30.375Z,73.67
2016-06-25T09:58:30.365Z,74.16
2016-06-25T09:59:30.350Z,73.67
2016-06-25T10:00:29.734Z,74.16
2016-06-25T10:01:30.309Z,74.25
2016-06-25T10:02:30.299Z,73.19
2016-06-25T10:03:29.701Z,73.67
2016-06-25T10:04:30.278Z,73.48
2016-06-25T10:05:30.253Z,73.77
2016-06-25T10:06:30.244Z,74.44
2016-06-25T10:07:30.449Z,74.35
2016-06-25T10:08:30.218Z,74.06
2016-06-25T10:09:30.196Z,73.86
2016-06-25T10:10:30.186Z,73.67
2016-06-25T10:11:30.164Z,74.35
2016-06-25T10:12:30.171Z,74.16
2016-06-25T10:13:30.146Z,73.48
2016-06-25T10:14:30.145Z,73.58
2016-06-25T10:15:30.117Z,73.67
2016-06-25T10:16:30.108Z,73.96
2016-06-25T10:17:30.090Z,73.67
2016-06-25T10:18:30.083Z,73.77
2016-06-25T10:19:30.076Z,74.35
2016-06-25T10:20:29.451Z,73.67
2016-06-25T10:21:30.026Z,74.06
2016-06-25T10:22:30.037Z,74.54
2016-06-25T10:23:30.103Z,73.86
2016-06-25T10:24:29.398Z,74.06
2016-06-25T10:25:29.387Z,74.06
2016-06-25T10:26:29.955Z,73.77
2016-06-25T10:27:29.943Z,74.93
2016-06-25T10:28:29.942Z,74.35
2016-06-25T10:29:29.995Z,74.16
2016-06-25T10:30:29.903Z,73.48
2016-06-25T10:31:30.134Z,74.1
2016-06-25T10:32:29.873Z,74.06
2016-06-25T10:33:29.868Z,74.16
2016-06-25T10:34:29.839Z,73.77
2016-06-25T10:35:29.833Z,74.06
2016-06-25T10:36:29.817Z,74.06
2016-06-25T10:37:29.799Z,73.86
2016-06-25T10:38:29.798Z,74.06
2016-06-25T10:39:30.178Z,74.16
2016-06-25T10:40:29.747Z,74.54
2016-06-25T10:41:29.743Z,74.44
2016-06-25T10:42:29.725Z,74.44
2016-06-25T10:43:29.724Z,74.73
2016-06-25T10:44:29.695Z,74.02
2016-06-25T10:45:29.684Z,75.02
2016-06-25T10:46:29.663Z,75.18
2016-06-25T10:47:30.151Z,74.99
2016-06-25T10:48:29.641Z,74.89
2016-06-25T10:49:29.027Z,74.6
2016-06-25T10:50:29.623Z,74.79
2016-06-25T10:51:29.606Z,74.6
2016-06-25T10:52:29.598Z,74.6
2016-06-25T10:53:29.574Z,74.41
2016-06-25T10:54:29.583Z,74.12
2016-06-25T10:55:30.139Z,74.54
2016-06-25T10:56:29.543Z,73.96
2016-06-25T10:57:29.522Z,74.35
2016-06-25T10:58:29.513Z,74.16
2016-06-25T10:59:29.492Z,74.54
2016-06-25T11:00:29.470Z,74.25
2016-06-25T11:01:29.462Z,74.16
2016-06-25T11:02:29.442Z,73.58
2016-06-25T11:03:29.431Z,73.48
2016-06-25T11:04:29.411Z,72.9
2016-06-25T11:05:29.398Z,72.45
2016-06-25T11:06:29.393Z,72.45
2016-06-25T11:07:29.371Z,72.74
2016-06-25T11:08:29.359Z,72.64
2016-06-25T11:09:29.349Z,72.55
2016-06-25T11:10:29.325Z,72.64
2016-06-25T11:11:29.469Z,72.64
2016-06-25T11:12:29.322Z,72.74
2016-06-25T11:13:29.300Z,72.36
2016-06-25T11:14:29.306Z,72.16
2016-06-25T11:15:29.255Z,72.36
2016-06-25T11:16:29.249Z,72.36
2016-06-25T11:17:29.247Z,72.16
2016-06-25T11:18:29.243Z,72.16
2016-06-25T11:19:29.459Z,72.26
2016-06-25T11:20:29.248Z,72.26
2016-06-25T11:21:28.579Z,72.26
2016-06-25T11:22:29.169Z,72.16
2016-06-25T11:23:29.161Z,72.36
2016-06-25T11:24:29.165Z,71.88
2016-06-25T11:25:29.122Z,72.36
2016-06-25T11:26:29.111Z,72.74
2016-06-25T11:27:29.444Z,72.74
2016-06-25T11:28:29.079Z,72.64
2016-06-25T11:29:29.066Z,72.36
2016-06-25T11:30:29.051Z,72.16
2016-06-25T11:31:29.226Z,72.36
2016-06-25T11:32:29.009Z,72.55
2016-06-25T11:33:29.005Z,72.36
2016-06-25T11:34:28.988Z,73.13
2016-06-25T11:35:29.472Z,72.55
2016-06-25T11:36:28.958Z,73.48
2016-06-25T11:37:28.938Z,73.67
2016-06-25T11:38:28.937Z,73.67
2016-06-25T11:39:28.310Z,73.96
2016-06-25T11:40:28.930Z,73.28
2016-06-25T11:41:28.884Z,74.16
2016-06-25T11:42:28.923Z,73.96
2016-06-25T11:43:28.853Z,74.54
2016-06-25T11:44:28.846Z,74.21
2016-06-25T11:45:28.826Z,74.21
2016-06-25T11:46:28.818Z,74.02
2016-06-25T11:47:28.802Z,74.31
2016-06-25T11:48:28.794Z,74.25
2016-06-25T11:49:28.778Z,74.21
2016-06-25T11:50:29.062Z,73.67
2016-06-25T11:51:28.752Z,73.83
2016-06-25T11:52:28.725Z,74.31
2016-06-25T11:53:28.715Z,74.21
2016-06-25T11:54:28.698Z,74.51
2016-06-25T11:55:28.088Z,74.41
2016-06-25T11:56:28.680Z,74.51
2016-06-25T11:57:28.666Z,74.51
2016-06-25T11:58:29.060Z,74.31
2016-06-25T11:59:28.638Z,75.18
2016-06-25T12:00:28.620Z,74.6
2016-06-25T12:01:28.602Z,74.51
2016-06-25T12:02:28.583Z,75.72
2016-06-25T12:03:28.570Z,75.59
2016-06-25T12:04:28.568Z,75.97
2016-06-25T12:05:27.938Z,75.68
2016-06-25T12:06:28.934Z,75.1
2016-06-25T12:07:27.915Z,75.4
2016-06-25T12:08:28.510Z,75.2
2016-06-25T12:09:28.498Z,74.72
2016-06-25T12:10:28.470Z,74.37
2016-06-25T12:11:28.448Z,74.27
2016-06-25T12:12:28.449Z,72.92
2016-06-25T12:13:28.446Z,74.27
2016-06-25T12:14:28.967Z,73.31
2016-06-25T12:15:28.396Z,73.5
2016-06-25T12:16:28.376Z,74.02
2016-06-25T12:17:28.364Z,74.18
2016-06-25T12:18:28.353Z,73.5
2016-06-25T12:19:28.330Z,72.86
2016-06-25T12:20:28.323Z,72.48
2016-06-25T12:21:28.306Z,72.96
2016-06-25T12:22:27.686Z,73.06
2016-06-25T12:23:28.284Z,72.77
2016-06-25T12:24:28.259Z,73.06
2016-06-25T12:25:28.247Z,72.86
2016-06-25T12:26:28.232Z,72.48
2016-06-25T12:27:28.209Z,72.19
2016-06-25T12:28:28.197Z,72.54
2016-06-25T12:29:28.189Z,72.63
2016-06-25T12:30:28.172Z,73.11
2016-06-25T12:31:28.160Z,73.5
2016-06-25T12:32:28.150Z,73.5
2016-06-25T12:33:28.128Z,73.5
2016-06-25T12:34:28.119Z,73.6
2016-06-25T12:35:28.128Z,73.41
2016-06-25T12:36:28.101Z,73.6
2016-06-25T12:37:28.083Z,73.5
2016-06-25T12:38:28.054Z,74.08
2016-06-25T12:39:28.030Z,74.18
2016-06-25T12:40:28.034Z,73.02
2016-06-25T12:41:28.006Z,73.44
2016-06-25T12:42:27.993Z,73.21
2016-06-25T12:43:27.985Z,73.5
2016-06-25T12:44:27.961Z,73.99
2016-06-25T12:45:27.947Z,73.69
2016-06-25T12:46:27.941Z,73.6
2016-06-25T12:47:27.935Z,73.99
2016-06-25T12:48:27.902Z,73.75
2016-06-25T12:49:27.893Z,73.57
2016-06-25T12:50:27.873Z,73.85
2016-06-25T12:51:27.853Z,73.66
2016-06-25T12:52:27.839Z,73.95
2016-06-25T12:53:27.829Z,73.57
2016-06-25T12:54:27.818Z,73.21
2016-06-25T12:55:27.801Z,73.41
2016-06-25T12:56:27.785Z,73.95